sensor_id;sensor_type;location;lat;lon;timestamp;pressure;altitude;pressure_sealevel;temperature;humidity
62333;BME280;48624;49.812;8.562;2023-05-25T00:01:53;101222.25;;;8.87;79.55
62333;BME280;48624;49.812;8.562;2023-05-25T00:04:18;101223.56;;;8.78;80.01
62333;BME280;48624;49.812;8.562;2023-05-25T00:06:45;101221.78;;;8.79;80.13
62333;BME280;48624;49.812;8.562;2023-05-25T00:09:11;101222.81;;;8.94;79.36
62333;BME280;48624;49.812;8.562;2023-05-25T00:11:37;101223.59;;;8.96;79.63
62333;BME280;48624;49.812;8.562;2023-05-25T00:14:02;101216.25;;;9.02;79.33
62333;BME280;48624;49.812;8.562;2023-05-25T00:16:28;101209.22;;;9.19;79.00
62333;BME280;48624;49.812;8.562;2023-05-25T00:18:53;101202.47;;;9.13;79.42
62333;BME280;48624;49.812;8.562;2023-05-25T00:21:21;101203.72;;;9.24;79.21
62333;BME280;48624;49.812;8.562;2023-05-25T00:23:47;101202.88;;;9.23;79.63
62333;BME280;48624;49.812;8.562;2023-05-25T00:26:12;101212.56;;;9.05;80.64
62333;BME280;48624;49.812;8.562;2023-05-25T00:28:37;101207.97;;;9.09;81.10
62333;BME280;48624;49.812;8.562;2023-05-25T00:31:03;101204.19;;;9.32;79.48
62333;BME280;48624;49.812;8.562;2023-05-25T00:33:28;101202.56;;;9.12;81.11
62333;BME280;48624;49.812;8.562;2023-05-25T00:35:53;101207.72;;;8.96;82.22
62333;BME280;48624;49.812;8.562;2023-05-25T00:38:19;101202.47;;;9.13;81.35
62333;BME280;48624;49.812;8.562;2023-05-25T00:40:44;101207.38;;;9.04;81.59
62333;BME280;48624;49.812;8.562;2023-05-25T00:43:11;101210.84;;;9.04;81.80
62333;BME280;48624;49.812;8.562;2023-05-25T00:45:37;101213.66;;;9.01;82.52
62333;BME280;48624;49.812;8.562;2023-05-25T00:48:03;101212.09;;;8.97;82.57
62333;BME280;48624;49.812;8.562;2023-05-25T00:50:36;101210.66;;;9.26;81.48
62333;BME280;48624;49.812;8.562;2023-05-25T00:53:07;101206.97;;;9.11;82.15
62333;BME280;48624;49.812;8.562;2023-05-25T00:55:58;101222.59;;;8.98;83.12
62333;BME280;48624;49.812;8.562;2023-05-25T00:58:30;101216.00;;;9.07;82.83
62333;BME280;48624;49.812;8.562;2023-05-25T01:00:56;101208.59;;;8.96;83.54
62333;BME280;48624;49.812;8.562;2023-05-25T01:03:22;101220.88;;;8.97;83.21
62333;BME280;48624;49.812;8.562;2023-05-25T01:05:53;101213.53;;;9.22;81.78
62333;BME280;48624;49.812;8.562;2023-05-25T01:08:21;101220.28;;;9.27;81.71
62333;BME280;48624;49.812;8.562;2023-05-25T01:10:48;101221.53;;;9.02;83.48
62333;BME280;48624;49.812;8.562;2023-05-25T01:13:16;101224.66;;;9.11;82.82
62333;BME280;48624;49.812;8.562;2023-05-25T01:15:43;101220.28;;;9.27;81.29
62333;BME280;48624;49.812;8.562;2023-05-25T01:18:09;101220.84;;;9.16;82.40
62333;BME280;48624;49.812;8.562;2023-05-25T01:20:53;101221.53;;;9.02;83.23
62333;BME280;48624;49.812;8.562;2023-05-25T01:23:25;101222.00;;;9.28;81.36
62333;BME280;48624;49.812;8.562;2023-05-25T01:25:54;101220.97;;;9.13;82.22
62333;BME280;48624;49.812;8.562;2023-05-25T01:28:29;101231.25;;;9.20;81.15
62333;BME280;48624;49.812;8.562;2023-05-25T01:30:56;101217.16;;;9.19;80.98
62333;BME280;48624;49.812;8.562;2023-05-25T01:33:22;101224.41;;;9.33;80.52
62333;BME280;48624;49.812;8.562;2023-05-25T01:35:48;101220.00;;;9.34;80.60
62333;BME280;48624;49.812;8.562;2023-05-25T01:38:15;101217.72;;;9.08;81.98
62333;BME280;48624;49.812;8.562;2023-05-25T01:40:42;101224.31;;;9.17;81.42
62333;BME280;48624;49.812;8.562;2023-05-25T01:43:07;101219.66;;;9.05;82.01
62333;BME280;48624;49.812;8.562;2023-05-25T01:45:33;101217.41;;;8.78;83.98
62333;BME280;48624;49.812;8.562;2023-05-25T01:48:07;101216.59;;;8.95;83.01
62333;BME280;48624;49.812;8.562;2023-05-25T01:50:40;101228.81;;;8.97;82.66
62333;BME280;48624;49.812;8.562;2023-05-25T01:53:22;101235.53;;;8.85;83.65
62333;BME280;48624;49.812;8.562;2023-05-25T01:55:58;101243.41;;;8.87;83.37
62333;BME280;48624;49.812;8.562;2023-05-25T01:58:25;101239.19;;;8.83;83.82
62333;BME280;48624;49.812;8.562;2023-05-25T02:00:52;101241.53;;;8.89;83.29
62333;BME280;48624;49.812;8.562;2023-05-25T02:03:17;101245.75;;;8.93;83.24
62333;BME280;48624;49.812;8.562;2023-05-25T02:05:44;101244.09;;;8.91;83.21
62333;BME280;48624;49.812;8.562;2023-05-25T02:08:10;101241.19;;;8.97;83.12
62333;BME280;48624;49.812;8.562;2023-05-25T02:10:35;101242.56;;;8.67;85.62
62333;BME280;48624;49.812;8.562;2023-05-25T02:13:01;101241.31;;;8.94;84.18
62333;BME280;48624;49.812;8.562;2023-05-25T02:15:30;101239.88;;;9.06;83.15
62333;BME280;48624;49.812;8.562;2023-05-25T02:17:55;101235.34;;;9.08;82.90
62333;BME280;48624;49.812;8.562;2023-05-25T02:20:22;101227.81;;;8.81;84.64
62333;BME280;48624;49.812;8.562;2023-05-25T02:22:47;101222.66;;;8.60;86.55
62333;BME280;48624;49.812;8.562;2023-05-25T02:25:12;101225.38;;;8.58;86.16
62333;BME280;48624;49.812;8.562;2023-05-25T02:27:37;101214.84;;;8.76;84.93
62333;BME280;48624;49.812;8.562;2023-05-25T02:30:03;101215.16;;;8.51;87.33
62333;BME280;48624;49.812;8.562;2023-05-25T02:32:29;101228.34;;;8.51;87.29
62333;BME280;48624;49.812;8.562;2023-05-25T02:34:55;101219.50;;;8.52;87.06
62333;BME280;48624;49.812;8.562;2023-05-25T02:37:20;101216.31;;;8.43;87.65
62333;BME280;48624;49.812;8.562;2023-05-25T02:39:46;101215.50;;;8.62;86.35
62333;BME280;48624;49.812;8.562;2023-05-25T02:42:12;101219.59;;;8.29;88.59
62333;BME280;48624;49.812;8.562;2023-05-25T02:44:38;101218.91;;;8.45;87.65
62333;BME280;48624;49.812;8.562;2023-05-25T02:47:03;101217.66;;;8.54;86.69
62333;BME280;48624;49.812;8.562;2023-05-25T02:49:28;101224.41;;;8.21;89.37
62333;BME280;48624;49.812;8.562;2023-05-25T02:51:54;101226.13;;;8.41;87.67
62333;BME280;48624;49.812;8.562;2023-05-25T02:54:20;101225.13;;;8.44;87.13
62333;BME280;48624;49.812;8.562;2023-05-25T02:56:45;101234.41;;;8.33;88.39
62333;BME280;48624;49.812;8.562;2023-05-25T02:59:10;101225.13;;;8.44;87.10
62333;BME280;48624;49.812;8.562;2023-05-25T03:01:36;101220.84;;;8.41;87.40
62333;BME280;48624;49.812;8.562;2023-05-25T03:04:01;101225.19;;;8.42;86.91
62333;BME280;48624;49.812;8.562;2023-05-25T03:06:27;101226.66;;;8.10;89.74
62333;BME280;48624;49.812;8.562;2023-05-25T03:08:52;101225.44;;;7.98;90.72
62333;BME280;48624;49.812;8.562;2023-05-25T03:11:18;101230.25;;;7.88;91.25
62333;BME280;48624;49.812;8.562;2023-05-25T03:13:43;101226.84;;;8.05;90.40
62333;BME280;48624;49.812;8.562;2023-05-25T03:16:08;101237.91;;;7.94;91.12
62333;BME280;48624;49.812;8.562;2023-05-25T03:18:33;101240.78;;;8.09;90.13
62333;BME280;48624;49.812;8.562;2023-05-25T03:20:59;101236.06;;;7.96;90.95
62333;BME280;48624;49.812;8.562;2023-05-25T03:23:24;101238.91;;;7.91;91.57
62333;BME280;48624;49.812;8.562;2023-05-25T03:25:49;101247.59;;;7.94;91.54
62333;BME280;48624;49.812;8.562;2023-05-25T03:28:15;101238.44;;;7.82;91.69
62333;BME280;48624;49.812;8.562;2023-05-25T03:30:41;101246.16;;;7.86;92.12
62333;BME280;48624;49.812;8.562;2023-05-25T03:33:06;101245.44;;;7.62;94.49
62333;BME280;48624;49.812;8.562;2023-05-25T03:35:31;101245.56;;;7.80;92.96
62333;BME280;48624;49.812;8.562;2023-05-25T03:37:56;101248.53;;;7.72;93.42
62333;BME280;48624;49.812;8.562;2023-05-25T03:40:22;101253.34;;;7.62;94.85
62333;BME280;48624;49.812;8.562;2023-05-25T03:42:48;101252.03;;;7.72;94.06
62333;BME280;48624;49.812;8.562;2023-05-25T03:45:13;101245.63;;;7.57;94.96
62333;BME280;48624;49.812;8.562;2023-05-25T03:47:38;101252.56;;;7.60;95.84
62333;BME280;48624;49.812;8.562;2023-05-25T03:50:04;101250.50;;;7.67;94.98
62333;BME280;48624;49.812;8.562;2023-05-25T03:52:32;101245.75;;;7.96;92.77
62333;BME280;48624;49.812;8.562;2023-05-25T03:54:57;101245.94;;;8.12;91.49
62333;BME280;48624;49.812;8.562;2023-05-25T03:57:23;101237.66;;;8.19;90.31
62333;BME280;48624;49.812;8.562;2023-05-25T03:59:48;101247.84;;;8.08;91.66
62333;BME280;48624;49.812;8.562;2023-05-25T04:02:13;101252.63;;;8.19;91.61
62333;BME280;48624;49.812;8.562;2023-05-25T04:04:39;101259.88;;;8.35;90.28
62333;BME280;48624;49.812;8.562;2023-05-25T04:07:06;101257.94;;;8.38;89.72
62333;BME280;48624;49.812;8.562;2023-05-25T04:09:31;101263.91;;;8.23;90.89
62333;BME280;48624;49.812;8.562;2023-05-25T04:11:57;101272.13;;;8.36;89.69
62333;BME280;48624;49.812;8.562;2023-05-25T04:14:23;101280.78;;;8.39;89.35
62333;BME280;48624;49.812;8.562;2023-05-25T04:16:48;101276.94;;;8.46;88.44
62333;BME280;48624;49.812;8.562;2023-05-25T04:19:13;101273.94;;;8.35;89.52
62333;BME280;48624;49.812;8.562;2023-05-25T04:21:39;101277.06;;;8.43;89.21
62333;BME280;48624;49.812;8.562;2023-05-25T04:24:04;101292.34;;;8.37;90.62
62333;BME280;48624;49.812;8.562;2023-05-25T04:26:30;101292.00;;;8.44;90.59
62333;BME280;48624;49.812;8.562;2023-05-25T04:28:56;101292.69;;;8.48;90.16
62333;BME280;48624;49.812;8.562;2023-05-25T04:31:22;101300.56;;;8.50;90.35
62333;BME280;48624;49.812;8.562;2023-05-25T04:33:51;101297.69;;;8.56;90.11
62333;BME280;48624;49.812;8.562;2023-05-25T04:36:16;101297.53;;;8.59;90.01
62333;BME280;48624;49.812;8.562;2023-05-25T04:38:42;101295.66;;;8.61;90.20
62333;BME280;48624;49.812;8.562;2023-05-25T04:41:11;101309.25;;;8.53;91.30
62333;BME280;48624;49.812;8.562;2023-05-25T04:43:38;101301.09;;;8.58;91.11
62333;BME280;48624;49.812;8.562;2023-05-25T04:46:03;101299.53;;;8.33;93.00
62333;BME280;48624;49.812;8.562;2023-05-25T04:48:29;101289.56;;;8.40;93.33
62333;BME280;48624;49.812;8.562;2023-05-25T04:50:58;101300.88;;;8.82;90.68
62333;BME280;48624;49.812;8.562;2023-05-25T04:53:27;101309.09;;;8.76;89.70
62333;BME280;48624;49.812;8.562;2023-05-25T04:55:52;101304.44;;;9.00;88.71
62333;BME280;48624;49.812;8.562;2023-05-25T04:58:19;101310.81;;;8.96;88.90
62333;BME280;48624;49.812;8.562;2023-05-25T05:00:45;101316.59;;;8.85;89.30
62333;BME280;48624;49.812;8.562;2023-05-25T05:03:11;101311.44;;;9.20;87.02
62333;BME280;48624;49.812;8.562;2023-05-25T05:05:37;101308.38;;;9.10;87.88
62333;BME280;48624;49.812;8.562;2023-05-25T05:08:04;101318.09;;;9.47;87.15
62333;BME280;48624;49.812;8.562;2023-05-25T05:10:29;101317.66;;;9.37;87.79
62333;BME280;48624;49.812;8.562;2023-05-25T05:12:54;101326.22;;;9.24;88.70
62333;BME280;48624;49.812;8.562;2023-05-25T05:15:19;101318.31;;;9.42;88.83
62333;BME280;48624;49.812;8.562;2023-05-25T05:17:45;101316.25;;;9.66;87.21
62333;BME280;48624;49.812;8.562;2023-05-25T05:20:10;101331.47;;;9.61;87.79
62333;BME280;48624;49.812;8.562;2023-05-25T05:22:36;101331.88;;;9.53;88.71
62333;BME280;48624;49.812;8.562;2023-05-25T05:25:02;101333.06;;;9.65;87.61
62333;BME280;48624;49.812;8.562;2023-05-25T05:27:27;101337.56;;;9.63;89.04
62333;BME280;48624;49.812;8.562;2023-05-25T05:29:52;101340.75;;;9.70;88.42
62333;BME280;48624;49.812;8.562;2023-05-25T05:32:18;101339.72;;;10.25;85.58
62333;BME280;48624;49.812;8.562;2023-05-25T05:34:43;101348.53;;;9.91;86.21
62333;BME280;48624;49.812;8.562;2023-05-25T05:37:08;101345.25;;;9.85;86.91
62333;BME280;48624;49.812;8.562;2023-05-25T05:39:34;101353.66;;;9.94;87.51
62333;BME280;48624;49.812;8.562;2023-05-25T05:41:59;101352.44;;;10.19;85.54
62333;BME280;48624;49.812;8.562;2023-05-25T05:44:25;101344.19;;;10.07;85.68
62333;BME280;48624;49.812;8.562;2023-05-25T05:46:50;101348.34;;;10.29;84.12
62333;BME280;48624;49.812;8.562;2023-05-25T05:49:16;101345.47;;;10.51;83.29
62333;BME280;48624;49.812;8.562;2023-05-25T05:51:41;101344.91;;;10.62;82.91
62333;BME280;48624;49.812;8.562;2023-05-25T05:54:06;101349.03;;;10.84;81.63
62333;BME280;48624;49.812;8.562;2023-05-25T05:56:32;101348.22;;;10.66;83.01
62333;BME280;48624;49.812;8.562;2023-05-25T05:58:57;101352.25;;;10.73;81.95
62333;BME280;48624;49.812;8.562;2023-05-25T06:01:22;101351.75;;;10.99;81.28
62333;BME280;48624;49.812;8.562;2023-05-25T06:03:48;101344.84;;;11.12;81.38
62333;BME280;48624;49.812;8.562;2023-05-25T06:06:14;101359.03;;;11.27;79.86
62333;BME280;48624;49.812;8.562;2023-05-25T06:08:39;101359.53;;;11.34;78.89
62333;BME280;48624;49.812;8.562;2023-05-25T06:11:07;101361.69;;;11.27;78.34
62333;BME280;48624;49.812;8.562;2023-05-25T06:13:33;101370.22;;;11.32;78.35
62333;BME280;48624;49.812;8.562;2023-05-25T06:15:58;101366.13;;;11.27;78.84
62333;BME280;48624;49.812;8.562;2023-05-25T06:18:23;101370.78;;;11.70;76.73
62333;BME280;48624;49.812;8.562;2023-05-25T06:20:49;101360.16;;;11.86;75.76
62333;BME280;48624;49.812;8.562;2023-05-25T06:23:15;101370.53;;;11.74;76.69
62333;BME280;48624;49.812;8.562;2023-05-25T06:25:42;101362.13;;;11.82;75.49
62333;BME280;48624;49.812;8.562;2023-05-25T06:28:07;101357.88;;;11.94;75.43
62333;BME280;48624;49.812;8.562;2023-05-25T06:30:33;101354.75;;;12.18;74.39
62333;BME280;48624;49.812;8.562;2023-05-25T06:32:58;101354.47;;;12.23;73.73
62333;BME280;48624;49.812;8.562;2023-05-25T06:35:23;101353.81;;;12.48;73.38
62333;BME280;48624;49.812;8.562;2023-05-25T06:37:49;101350.38;;;12.31;72.85
62333;BME280;48624;49.812;8.562;2023-05-25T06:40:17;101347.34;;;12.67;71.55
62333;BME280;48624;49.812;8.562;2023-05-25T06:42:43;101357.50;;;12.74;70.56
62333;BME280;48624;49.812;8.562;2023-05-25T06:45:08;101363.06;;;12.99;69.46
62333;BME280;48624;49.812;8.562;2023-05-25T06:47:34;101358.09;;;12.80;68.48
62333;BME280;48624;49.812;8.562;2023-05-25T06:50:00;101351.66;;;13.11;68.14
62333;BME280;48624;49.812;8.562;2023-05-25T06:52:25;101356.63;;;13.30;65.92
62333;BME280;48624;49.812;8.562;2023-05-25T06:54:54;101351.31;;;13.30;66.37
62333;BME280;48624;49.812;8.562;2023-05-25T06:57:21;101355.97;;;13.27;65.96
62333;BME280;48624;49.812;8.562;2023-05-25T06:59:47;101364.41;;;13.48;64.70
62333;BME280;48624;49.812;8.562;2023-05-25T07:02:12;101366.06;;;13.64;64.08
62333;BME280;48624;49.812;8.562;2023-05-25T07:04:38;101361.03;;;13.99;63.38
62333;BME280;48624;49.812;8.562;2023-05-25T07:07:03;101358.00;;;13.78;64.58
62333;BME280;48624;49.812;8.562;2023-05-25T07:09:28;101359.66;;;14.07;63.31
62333;BME280;48624;49.812;8.562;2023-05-25T07:11:54;101353.06;;;14.12;62.62
62333;BME280;48624;49.812;8.562;2023-05-25T07:14:19;101352.41;;;14.09;60.82
62333;BME280;48624;49.812;8.562;2023-05-25T07:16:44;101356.25;;;14.31;60.29
62333;BME280;48624;49.812;8.562;2023-05-25T07:19:10;101348.25;;;14.43;59.91
62333;BME280;48624;49.812;8.562;2023-05-25T07:21:35;101342.03;;;14.69;59.12
62333;BME280;48624;49.812;8.562;2023-05-25T07:24:02;101351.66;;;14.59;60.97
62333;BME280;48624;49.812;8.562;2023-05-25T07:26:27;101342.91;;;14.69;59.97
62333;BME280;48624;49.812;8.562;2023-05-25T07:28:53;101344.81;;;14.67;60.87
62333;BME280;48624;49.812;8.562;2023-05-25T07:31:18;101345.78;;;14.79;60.77
62333;BME280;48624;49.812;8.562;2023-05-25T07:33:43;101340.13;;;14.71;60.34
62333;BME280;48624;49.812;8.562;2023-05-25T07:36:09;101346.63;;;14.93;58.65
62333;BME280;48624;49.812;8.562;2023-05-25T07:38:34;101350.09;;;15.06;59.16
62333;BME280;48624;49.812;8.562;2023-05-25T07:41:00;101353.34;;;15.23;58.14
62333;BME280;48624;49.812;8.562;2023-05-25T07:43:26;101358.44;;;15.26;57.52
62333;BME280;48624;49.812;8.562;2023-05-25T07:45:51;101359.22;;;15.52;56.33
62333;BME280;48624;49.812;8.562;2023-05-25T07:48:17;101353.84;;;15.77;57.30
62333;BME280;48624;49.812;8.562;2023-05-25T07:50:42;101348.47;;;15.65;60.15
62333;BME280;48624;49.812;8.562;2023-05-25T07:53:07;101357.81;;;15.95;58.36
62333;BME280;48624;49.812;8.562;2023-05-25T07:55:33;101349.44;;;16.00;57.42
62333;BME280;48624;49.812;8.562;2023-05-25T07:57:58;101359.66;;;15.82;57.50
62333;BME280;48624;49.812;8.562;2023-05-25T08:00:23;101356.66;;;15.87;57.69
62333;BME280;48624;49.812;8.562;2023-05-25T08:02:49;101357.13;;;16.16;57.28
62333;BME280;48624;49.812;8.562;2023-05-25T08:05:14;101363.53;;;15.66;59.89
62333;BME280;48624;49.812;8.562;2023-05-25T08:07:40;101361.13;;;16.11;57.34
62333;BME280;48624;49.812;8.562;2023-05-25T08:10:05;101355.59;;;16.36;55.65
62333;BME280;48624;49.812;8.562;2023-05-25T08:12:31;101357.50;;;16.80;54.81
62333;BME280;48624;49.812;8.562;2023-05-25T08:14:57;101348.19;;;16.52;55.00
62333;BME280;48624;49.812;8.562;2023-05-25T08:17:22;101346.06;;;16.09;58.23
62333;BME280;48624;49.812;8.562;2023-05-25T08:19:47;101341.34;;;17.04;54.31
62333;BME280;48624;49.812;8.562;2023-05-25T08:22:13;101346.69;;;16.59;56.18
62333;BME280;48624;49.812;8.562;2023-05-25T08:24:38;101346.09;;;16.44;55.06
62333;BME280;48624;49.812;8.562;2023-05-25T08:27:04;101351.16;;;16.92;54.23
62333;BME280;48624;49.812;8.562;2023-05-25T08:29:29;101345.00;;;16.46;54.94
62333;BME280;48624;49.812;8.562;2023-05-25T08:31:55;101349.75;;;16.66;54.15
62333;BME280;48624;49.812;8.562;2023-05-25T08:34:20;101351.56;;;16.42;54.47
62333;BME280;48624;49.812;8.562;2023-05-25T08:36:45;101359.19;;;16.92;53.65
62333;BME280;48624;49.812;8.562;2023-05-25T08:39:11;101355.69;;;16.58;55.25
62333;BME280;48624;49.812;8.562;2023-05-25T08:41:42;101354.94;;;16.78;53.60
62333;BME280;48624;49.812;8.562;2023-05-25T08:44:08;101345.25;;;16.55;55.52
62333;BME280;48624;49.812;8.562;2023-05-25T08:46:33;101358.63;;;16.89;55.15
62333;BME280;48624;49.812;8.562;2023-05-25T08:49:17;101357.75;;;17.23;51.98
62333;BME280;48624;49.812;8.562;2023-05-25T08:51:53;101359.34;;;17.46;51.54
62333;BME280;48624;49.812;8.562;2023-05-25T08:54:21;101349.56;;;17.24;52.46
62333;BME280;48624;49.812;8.562;2023-05-25T08:56:52;101360.75;;;17.29;51.38
62333;BME280;48624;49.812;8.562;2023-05-25T09:02:22;101354.47;;;17.19;51.45
62333;BME280;48624;49.812;8.562;2023-05-25T09:04:49;101355.41;;;17.62;49.95
62333;BME280;48624;49.812;8.562;2023-05-25T09:07:16;101353.25;;;17.77;49.89
62333;BME280;48624;49.812;8.562;2023-05-25T09:09:42;101354.09;;;17.78;49.33
62333;BME280;48624;49.812;8.562;2023-05-25T09:12:08;101352.66;;;18.06;49.29
62333;BME280;48624;49.812;8.562;2023-05-25T09:14:34;101360.34;;;17.45;50.58
62333;BME280;48624;49.812;8.562;2023-05-25T09:17:01;101347.41;;;17.51;51.63
62333;BME280;48624;49.812;8.562;2023-05-25T09:19:26;101347.97;;;17.66;51.15
62333;BME280;48624;49.812;8.562;2023-05-25T09:21:52;101351.97;;;18.14;49.33
62333;BME280;48624;49.812;8.562;2023-05-25T09:24:17;101356.53;;;18.23;49.12
62333;BME280;48624;49.812;8.562;2023-05-25T09:26:43;101352.22;;;18.32;48.84
62333;BME280;48624;49.812;8.562;2023-05-25T09:29:13;101357.88;;;18.60;48.97
62333;BME280;48624;49.812;8.562;2023-05-25T09:31:38;101358.03;;;18.37;47.49
62333;BME280;48624;49.812;8.562;2023-05-25T09:34:10;101358.53;;;18.52;47.07
62333;BME280;48624;49.812;8.562;2023-05-25T09:36:35;101356.44;;;18.56;47.68
62333;BME280;48624;49.812;8.562;2023-05-25T09:39:07;101361.28;;;18.72;47.66
62333;BME280;48624;49.812;8.562;2023-05-25T09:41:33;101362.69;;;19.07;46.82
62333;BME280;48624;49.812;8.562;2023-05-25T09:44:00;101361.78;;;18.56;47.74
62333;BME280;48624;49.812;8.562;2023-05-25T09:46:26;101356.31;;;18.98;46.44
62333;BME280;48624;49.812;8.562;2023-05-25T09:48:52;101356.03;;;18.61;47.69
62333;BME280;48624;49.812;8.562;2023-05-25T09:51:17;101353.28;;;18.82;48.53
62333;BME280;48624;49.812;8.562;2023-05-25T09:53:43;101354.00;;;19.54;47.06
62333;BME280;48624;49.812;8.562;2023-05-25T09:56:10;101356.34;;;19.08;47.22
62333;BME280;48624;49.812;8.562;2023-05-25T09:58:35;101357.66;;;19.63;47.32
62333;BME280;48624;49.812;8.562;2023-05-25T10:01:01;101366.72;;;19.52;47.23
62333;BME280;48624;49.812;8.562;2023-05-25T10:03:28;101359.38;;;19.74;45.02
62333;BME280;48624;49.812;8.562;2023-05-25T10:05:54;101354.81;;;19.35;47.33
62333;BME280;48624;49.812;8.562;2023-05-25T10:08:19;101355.13;;;19.32;45.30
62333;BME280;48624;49.812;8.562;2023-05-25T10:10:47;101364.84;;;19.23;45.60
62333;BME280;48624;49.812;8.562;2023-05-25T10:13:14;101359.34;;;18.84;47.47
62333;BME280;48624;49.812;8.562;2023-05-25T10:15:44;101362.47;;;19.60;46.54
62333;BME280;48624;49.812;8.562;2023-05-25T10:18:13;101364.88;;;19.53;47.56
62333;BME280;48624;49.812;8.562;2023-05-25T10:20:41;101365.84;;;19.81;46.04
62333;BME280;48624;49.812;8.562;2023-05-25T10:23:11;101360.91;;;20.16;44.05
62333;BME280;48624;49.812;8.562;2023-05-25T10:25:39;101364.66;;;20.33;41.06
62333;BME280;48624;49.812;8.562;2023-05-25T10:28:43;101357.38;;;20.54;39.69
62333;BME280;48624;49.812;8.562;2023-05-25T10:31:11;101362.75;;;20.91;39.49
62333;BME280;48624;49.812;8.562;2023-05-25T10:33:38;101361.13;;;20.71;39.10
62333;BME280;48624;49.812;8.562;2023-05-25T10:36:04;101361.97;;;20.99;40.00
62333;BME280;48624;49.812;8.562;2023-05-25T10:38:30;101349.34;;;20.34;41.06
62333;BME280;48624;49.812;8.562;2023-05-25T10:41:01;101350.31;;;20.43;42.30
62333;BME280;48624;49.812;8.562;2023-05-25T10:43:28;101352.41;;;20.11;43.50
62333;BME280;48624;49.812;8.562;2023-05-25T10:45:54;101347.31;;;19.98;44.28
62333;BME280;48624;49.812;8.562;2023-05-25T10:48:20;101343.53;;;20.38;43.61
62333;BME280;48624;49.812;8.562;2023-05-25T10:50:49;101350.16;;;19.77;44.42
62333;BME280;48624;49.812;8.562;2023-05-25T10:53:15;101328.81;;;20.71;42.73
62333;BME280;48624;49.812;8.562;2023-05-25T10:58:17;101325.41;;;20.41;43.13
62333;BME280;48624;49.812;8.562;2023-05-25T11:00:56;101326.47;;;20.58;44.16
62333;BME280;48624;49.812;8.562;2023-05-25T11:03:22;101328.28;;;20.57;44.24
62333;BME280;48624;49.812;8.562;2023-05-25T11:06:07;101322.28;;;20.73;43.86
62333;BME280;48624;49.812;8.562;2023-05-25T11:08:56;101325.91;;;20.54;43.91
62333;BME280;48624;49.812;8.562;2023-05-25T11:14:19;101324.97;;;20.73;44.07
62333;BME280;48624;49.812;8.562;2023-05-25T11:19:38;101314.19;;;21.92;41.70
62333;BME280;48624;49.812;8.562;2023-05-25T11:22:12;101311.50;;;21.38;43.60
62333;BME280;48624;49.812;8.562;2023-05-25T11:24:38;101321.00;;;21.42;42.49
62333;BME280;48624;49.812;8.562;2023-05-25T11:27:04;101320.38;;;21.30;43.71
62333;BME280;48624;49.812;8.562;2023-05-25T11:29:31;101325.31;;;21.34;43.31
62333;BME280;48624;49.812;8.562;2023-05-25T11:31:56;101317.09;;;20.90;43.99
62333;BME280;48624;49.812;8.562;2023-05-25T11:34:23;101308.81;;;22.27;41.07
62333;BME280;48624;49.812;8.562;2023-05-25T11:36:59;101313.66;;;21.70;43.87
62333;BME280;48624;49.812;8.562;2023-05-25T11:39:28;101304.41;;;21.99;41.66
62333;BME280;48624;49.812;8.562;2023-05-25T11:41:56;101302.72;;;21.72;43.00
62333;BME280;48624;49.812;8.562;2023-05-25T11:44:29;101305.34;;;21.27;43.32
62333;BME280;48624;49.812;8.562;2023-05-25T11:46:56;101303.44;;;21.38;43.19
62333;BME280;48624;49.812;8.562;2023-05-25T11:49:26;101307.22;;;22.16;39.78
62333;BME280;48624;49.812;8.562;2023-05-25T11:51:58;101296.53;;;22.33;40.71
62333;BME280;48624;49.812;8.562;2023-05-25T11:54:25;101298.16;;;22.25;41.20
62333;BME280;48624;49.812;8.562;2023-05-25T11:56:52;101299.81;;;21.92;41.08
62333;BME280;48624;49.812;8.562;2023-05-25T11:59:20;101297.00;;;21.75;42.75
62333;BME280;48624;49.812;8.562;2023-05-25T12:02:03;101296.75;;;22.13;42.50
62333;BME280;48624;49.812;8.562;2023-05-25T12:04:31;101293.00;;;22.40;39.36
62333;BME280;48624;49.812;8.562;2023-05-25T12:07:05;101291.75;;;22.61;40.22
62333;BME280;48624;49.812;8.562;2023-05-25T12:09:31;101281.81;;;22.62;39.26
62333;BME280;48624;49.812;8.562;2023-05-25T12:11:58;101285.00;;;23.33;37.80
62333;BME280;48624;49.812;8.562;2023-05-25T12:14:24;101286.47;;;22.94;39.44
62333;BME280;48624;49.812;8.562;2023-05-25T12:16:50;101278.78;;;23.41;37.41
62333;BME280;48624;49.812;8.562;2023-05-25T12:19:16;101275.34;;;23.22;37.91
62333;BME280;48624;49.812;8.562;2023-05-25T12:21:42;101281.75;;;23.13;38.96
62333;BME280;48624;49.812;8.562;2023-05-25T12:24:08;101270.81;;;23.56;34.88
62333;BME280;48624;49.812;8.562;2023-05-25T12:26:48;101270.31;;;23.36;36.89
62333;BME280;48624;49.812;8.562;2023-05-25T12:29:14;101269.75;;;23.90;34.08
62333;BME280;48624;49.812;8.562;2023-05-25T12:31:40;101265.19;;;23.82;34.79
62333;BME280;48624;49.812;8.562;2023-05-25T12:34:12;101263.88;;;23.53;34.23
62333;BME280;48624;49.812;8.562;2023-05-25T12:39:04;101259.59;;;24.41;33.15
62333;BME280;48624;49.812;8.562;2023-05-25T12:41:31;101254.84;;;24.03;31.25
62333;BME280;48624;49.812;8.562;2023-05-25T12:44:05;101265.13;;;24.24;31.74
62333;BME280;48624;49.812;8.562;2023-05-25T12:46:31;101255.59;;;25.23;30.63
62333;BME280;48624;49.812;8.562;2023-05-25T12:48:56;101253.34;;;25.42;29.86
62333;BME280;48624;49.812;8.562;2023-05-25T12:51:21;101250.06;;;25.31;30.54
62333;BME280;48624;49.812;8.562;2023-05-25T12:53:50;101246.25;;;25.41;31.02
62333;BME280;48624;49.812;8.562;2023-05-25T12:56:16;101246.78;;;25.59;29.01
62333;BME280;48624;49.812;8.562;2023-05-25T12:58:41;101252.69;;;24.70;30.82
62333;BME280;48624;49.812;8.562;2023-05-25T13:01:07;101246.84;;;24.18;33.15
62333;BME280;48624;49.812;8.562;2023-05-25T13:03:33;101241.94;;;25.31;32.32
62333;BME280;48624;49.812;8.562;2023-05-25T13:06:00;101242.22;;;25.75;33.39
62333;BME280;48624;49.812;8.562;2023-05-25T13:08:26;101243.34;;;25.96;32.67